Time;durP1;ratioP1;P1;durP2;ratioP2;P2;SDS_P1;SDS_P2;PMS_P1;PMS_P2;Temp;Humidity;BMP_temperature;BMP_pressure;BME280_temperature;BME280_humidity;BME280_pressure;Samples;Min_cycle;Max_cycle;Signal;HPM_P1;HPM_P2
2023/12/06 00:01:50;;;;;;;33.13;22.13;;;;;;;1.03;100.00;100845.50;6216695;28;20236;-76
2023/12/06 00:05:12;;;;;;;26.93;19.47;;;;;;;0.92;100.00;100842.50;6206325;28;20236;-76
2023/12/06 00:08:33;;;;;;;26.53;20.27;;;;;;;0.85;100.00;100840.25;6202788;28;20225;-78
2023/12/06 00:11:54;;;;;;;27.80;24.40;;;;;;;0.91;100.00;100839.94;6193178;28;20237;-77
2023/12/06 00:15:15;;;;;;;26.83;19.37;;;;;;;0.92;100.00;100834.53;6220212;28;20232;-77
2023/12/06 00:18:36;;;;;;;31.70;21.07;;;;;;;1.07;100.00;100835.56;6212687;28;20230;-77
2023/12/06 00:21:58;;;;;;;29.70;20.60;;;;;;;1.05;100.00;100835.66;6217096;28;20221;-78
2023/12/06 00:25:20;;;;;;;27.20;20.13;;;;;;;1.04;100.00;100841.91;6225252;28;20233;-76
2023/12/06 00:28:41;;;;;;;25.77;23.00;;;;;;;1.07;100.00;100838.22;6218908;28;20232;-77
2023/12/06 00:32:02;;;;;;;32.17;20.43;;;;;;;0.96;100.00;100841.41;6221530;28;20240;-79
2023/12/06 00:35:23;;;;;;;23.97;16.33;;;;;;;1.04;100.00;100843.69;6215830;28;20241;-78
2023/12/06 00:38:45;;;;;;;27.83;18.80;;;;;;;0.98;100.00;100844.84;6216339;28;20262;-77
2023/12/06 00:42:06;;;;;;;25.87;19.93;;;;;;;1.02;100.00;100848.22;6220424;28;20229;-78
2023/12/06 00:45:27;;;;;;;27.67;19.67;;;;;;;1.04;100.00;100846.34;6224040;28;20232;-78
2023/12/06 00:48:48;;;;;;;24.70;20.07;;;;;;;1.11;100.00;100851.28;6223365;28;20224;-77
2023/12/06 00:52:09;;;;;;;27.90;18.93;;;;;;;1.03;100.00;100840.19;6220725;28;20236;-77
2023/12/06 00:55:31;;;;;;;24.37;17.33;;;;;;;0.98;100.00;100844.84;6222234;28;20240;-77
2023/12/06 00:58:52;;;;;;;22.83;17.37;;;;;;;0.99;100.00;100846.59;6223999;28;20319;-77
2023/12/06 01:02:13;;;;;;;21.33;18.77;;;;;;;0.91;100.00;100839.94;6207516;28;20641;-77
2023/12/06 01:05:34;;;;;;;29.57;24.53;;;;;;;0.96;100.00;100837.94;6224779;28;20541;-76
2023/12/06 01:08:54;;;;;;;27.70;19.60;;;;;;;1.08;100.00;100851.44;6224478;28;20244;-77
2023/12/06 01:12:17;;;;;;;26.00;18.40;;;;;;;1.04;100.00;100851.66;6224335;28;20244;-77
2023/12/06 01:15:38;;;;;;;28.03;20.20;;;;;;;0.96;100.00;100851.19;6210086;28;20260;-77
2023/12/06 01:18:59;;;;;;;34.20;20.73;;;;;;;1.04;100.00;100855.19;6220441;28;20813;-76
2023/12/06 01:22:20;;;;;;;30.40;20.93;;;;;;;0.95;100.00;100857.41;6207802;28;20268;-78
2023/12/06 01:25:41;;;;;;;26.77;21.60;;;;;;;1.04;100.00;100863.16;6224250;28;20935;-78
2023/12/06 01:29:07;;;;;;;24.47;18.93;;;;;;;1.04;100.00;100860.50;6205387;28;20231;-78
2023/12/06 01:32:28;;;;;;;26.20;20.33;;;;;;;1.03;100.00;100865.84;6221440;28;20244;-79
2023/12/06 01:35:49;;;;;;;33.50;23.43;;;;;;;1.14;100.00;100869.72;6225168;28;20703;-78
2023/12/06 01:39:09;;;;;;;27.73;21.77;;;;;;;0.95;100.00;100858.28;6202804;28;20250;-76
2023/12/06 01:42:30;;;;;;;26.60;21.97;;;;;;;0.92;100.00;100866.38;6215667;28;20240;-77
2023/12/06 01:45:52;;;;;;;32.57;23.43;;;;;;;0.86;100.00;100864.03;6221544;28;20267;-76
2023/12/06 01:49:13;;;;;;;28.07;22.07;;;;;;;0.99;100.00;100865.16;6222982;28;20229;-77
2023/12/06 01:52:36;;;;;;;32.10;24.40;;;;;;;1.02;100.00;100867.69;6205377;28;20323;-76
2023/12/06 01:55:56;;;;;;;33.93;21.27;;;;;;;0.94;100.00;100867.16;6218318;28;20686;-77
2023/12/06 01:59:18;;;;;;;30.30;21.07;;;;;;;1.10;100.00;100872.59;6222802;28;20495;-76
2023/12/06 02:02:40;;;;;;;31.00;22.90;;;;;;;1.13;100.00;100867.97;6223720;28;20248;-77
2023/12/06 02:06:02;;;;;;;33.33;22.30;;;;;;;1.11;100.00;100875.16;6216335;28;20232;-77
2023/12/06 02:09:23;;;;;;;34.80;25.40;;;;;;;1.15;100.00;100876.72;6204564;28;20319;-78
2023/12/06 02:12:44;;;;;;;32.73;23.27;;;;;;;1.06;100.00;100876.34;6220175;28;20233;-77
2023/12/06 02:16:07;;;;;;;31.53;23.00;;;;;;;1.07;100.00;100878.03;6218439;28;20244;-78
2023/12/06 02:19:30;;;;;;;34.97;26.47;;;;;;;1.17;100.00;100876.66;6204650;28;20232;-77
2023/12/06 02:22:53;;;;;;;33.30;22.03;;;;;;;1.24;100.00;100873.63;6218239;28;20233;-76
2023/12/06 02:26:15;;;;;;;24.67;21.87;;;;;;;1.22;100.00;100880.78;6214707;28;20232;-76
2023/12/06 02:29:38;;;;;;;29.20;21.27;;;;;;;1.22;100.00;100879.94;6206900;28;20256;-76
2023/12/06 02:32:58;;;;;;;32.10;25.03;;;;;;;1.25;100.00;100875.31;6188884;28;20228;-76
2023/12/06 02:36:21;;;;;;;30.20;21.10;;;;;;;1.22;100.00;100878.13;6215446;28;20244;-76
2023/12/06 02:39:43;;;;;;;33.53;25.87;;;;;;;1.24;100.00;100881.56;6214857;28;20295;-77
2023/12/06 02:43:05;;;;;;;33.37;22.80;;;;;;;1.24;100.00;100873.63;6214419;28;20232;-77
2023/12/06 02:46:26;;;;;;;32.13;24.77;;;;;;;1.26;100.00;100865.56;6212124;28;20600;-77
2023/12/06 02:49:47;;;;;;;29.93;24.50;;;;;;;1.38;100.00;100867.59;6212449;28;20236;-76
2023/12/06 02:53:08;;;;;;;33.10;22.77;;;;;;;1.25;100.00;100872.66;6217251;28;20271;-76
2023/12/06 02:56:29;;;;;;;28.63;21.60;;;;;;;1.28;100.00;100874.31;6214940;28;20229;-76
2023/12/06 02:59:51;;;;;;;30.17;22.23;;;;;;;1.25;100.00;100867.34;6216335;28;20232;-76
2023/12/06 03:03:12;;;;;;;32.23;21.63;;;;;;;1.27;100.00;100876.09;6214151;28;20355;-77
2023/12/06 03:06:33;;;;;;;29.77;21.67;;;;;;;1.33;100.00;100870.50;6218499;28;20232;-76
2023/12/06 03:09:54;;;;;;;27.00;21.07;;;;;;;1.34;100.00;100869.53;6212492;28;20225;-76
2023/12/06 03:13:15;;;;;;;30.17;22.10;;;;;;;1.32;100.00;100867.91;6214321;28;20255;-77
2023/12/06 03:16:37;;;;;;;33.10;22.43;;;;;;;1.34;100.00;100864.25;6215585;28;20225;-77
2023/12/06 03:19:58;;;;;;;32.93;23.60;;;;;;;1.31;100.00;100867.06;6189220;28;20225;-76
2023/12/06 03:23:19;;;;;;;30.37;22.23;;;;;;;1.34;100.00;100863.38;6218748;28;20633;-76
2023/12/06 03:26:40;;;;;;;32.57;24.30;;;;;;;1.37;100.00;100866.75;6215600;28;20236;-77
2023/12/06 03:30:01;;;;;;;30.97;23.13;;;;;;;1.40;100.00;100863.91;6212858;28;20228;-78
2023/12/06 03:33:23;;;;;;;28.17;21.33;;;;;;;1.18;100.00;100873.94;6216480;28;20363;-75
2023/12/06 03:36:44;;;;;;;30.53;22.13;;;;;;;1.23;100.00;100889.63;6215281;28;20248;-77
2023/12/06 03:40:07;;;;;;;30.20;24.77;;;;;;;1.35;100.00;100878.38;6213340;28;20256;-78
2023/12/06 03:43:28;;;;;;;33.63;21.33;;;;;;;1.37;100.00;100869.41;6213302;28;20236;-76
2023/12/06 03:46:50;;;;;;;25.57;21.30;;;;;;;1.40;100.00;100869.22;6221048;28;20233;-76
2023/12/06 03:50:12;;;;;;;26.93;22.37;;;;;;;1.28;100.00;100872.50;6220646;28;20232;-76
2023/12/06 03:53:33;;;;;;;32.70;23.93;;;;;;;1.27;100.00;100881.41;6202994;28;20259;-77
2023/12/06 03:56:54;;;;;;;36.60;25.43;;;;;;;1.45;100.00;100874.31;6218866;28;20308;-77
2023/12/06 04:00:16;;;;;;;35.73;24.73;;;;;;;1.37;100.00;100872.06;6214868;28;20593;-77
2023/12/06 04:03:37;;;;;;;29.67;21.90;;;;;;;1.48;100.00;100867.03;6225437;28;20240;-77
2023/12/06 04:06:59;;;;;;;26.63;21.73;;;;;;;1.56;100.00;100869.31;6222845;28;20307;-77
2023/12/06 04:10:20;;;;;;;27.20;19.20;;;;;;;1.50;100.00;100867.81;6228514;28;20224;-77
2023/12/06 04:13:41;;;;;;;27.70;22.97;;;;;;;1.48;100.00;100867.03;6220131;28;20538;-77
2023/12/06 04:17:02;;;;;;;30.23;26.87;;;;;;;1.50;100.00;100872.28;6226471;28;20271;-76
2023/12/06 04:20:23;;;;;;;31.60;24.13;;;;;;;1.61;100.00;100869.91;6223171;28;20264;-77
2023/12/06 04:23:45;;;;;;;30.27;23.37;;;;;;;1.57;100.00;100882.50;6222674;28;20292;-76
2023/12/06 04:27:06;;;;;;;29.23;19.77;;;;;;;1.54;100.00;100881.81;6218889;28;20975;-77
2023/12/06 04:30:27;;;;;;;38.27;24.00;;;;;;;1.54;100.00;100877.34;6221873;28;20236;-77
2023/12/06 04:33:48;;;;;;;34.03;24.53;;;;;;;1.53;100.00;100883.59;6209097;28;20248;-76
2023/12/06 04:37:09;;;;;;;34.43;23.27;;;;;;;1.33;100.00;100882.91;6219401;28;20224;-77
2023/12/06 04:40:30;;;;;;;34.73;21.60;;;;;;;1.49;100.00;100881.19;6228014;28;20248;-76
2023/12/06 04:43:52;;;;;;;31.33;22.13;;;;;;;1.47;100.00;100893.69;6222382;28;20232;-77
2023/12/06 04:47:12;;;;;;;32.90;24.37;;;;;;;1.38;100.00;100894.13;6222732;28;21073;-77
2023/12/06 04:50:33;;;;;;;33.43;26.30;;;;;;;1.35;100.00;100891.66;6220732;28;20232;-77
2023/12/06 04:53:54;;;;;;;36.53;25.73;;;;;;;1.23;100.00;100889.63;6223542;28;20236;-77
2023/12/06 04:57:16;;;;;;;34.93;28.67;;;;;;;1.38;100.00;100896.78;6222851;28;20724;-76
2023/12/06 05:00:38;;;;;;;29.07;21.47;;;;;;;1.22;100.00;100893.19;6221630;28;20232;-76
2023/12/06 05:03:59;;;;;;;38.67;27.47;;;;;;;1.36;100.00;100898.66;6218645;28;20220;-76
2023/12/06 05:07:19;;;;;;;39.27;26.80;;;;;;;1.44;100.00;100904.47;6205937;28;20673;-77
2023/12/06 05:10:40;;;;;;;35.47;24.30;;;;;;;1.49;100.00;100910.41;6218124;28;20232;-77
2023/12/06 05:14:03;;;;;;;53.40;38.93;;;;;;;1.43;100.00;100908.06;6206925;28;20232;-76
2023/12/06 05:17:23;;;;;;;39.23;31.33;;;;;;;1.48;100.00;100909.53;6206450;28;20316;-76
2023/12/06 05:20:44;;;;;;;48.43;31.27;;;;;;;1.61;100.00;100907.97;6206798;28;20244;-76
2023/12/06 05:24:06;;;;;;;42.73;33.73;;;;;;;1.42;100.00;100909.84;6219794;28;20225;-76
2023/12/06 05:27:26;;;;;;;43.50;32.00;;;;;;;1.47;100.00;100912.28;6220815;28;20232;-76
2023/12/06 05:30:49;;;;;;;53.37;40.17;;;;;;;1.51;100.00;100920.00;6225207;28;20232;-77
2023/12/06 05:34:10;;;;;;;41.57;30.23;;;;;;;1.53;100.00;100923.44;6207524;28;20248;-77
2023/12/06 05:37:32;;;;;;;41.93;29.10;;;;;;;1.50;100.00;100922.75;6220967;28;20229;-76
2023/12/06 05:40:53;;;;;;;35.27;24.60;;;;;;;1.51;100.00;100925.31;6220284;28;20232;-77
2023/12/06 05:44:14;;;;;;;39.63;28.00;;;;;;;1.44;100.00;100925.72;6221781;28;20251;-77
2023/12/06 05:47:36;;;;;;;35.13;25.43;;;;;;;1.48;100.00;100928.13;6219491;28;20558;-77
2023/12/06 05:50:57;;;;;;;48.13;31.23;;;;;;;1.44;100.00;100920.41;6222113;28;20236;-76
2023/12/06 05:54:18;;;;;;;39.73;26.97;;;;;;;1.40;100.00;100930.31;6221051;28;20237;-77
2023/12/06 05:57:39;;;;;;;40.67;27.30;;;;;;;1.46;100.00;100923.84;6222329;28;20233;-76
2023/12/06 06:01:01;;;;;;;41.40;26.83;;;;;;;1.37;100.00;100924.31;6199518;28;20229;-76
2023/12/06 06:04:23;;;;;;;46.23;27.63;;;;;;;1.32;100.00;100931.63;6216015;28;21049;-77
2023/12/06 06:07:44;;;;;;;45.13;31.37;;;;;;;1.26;100.00;100931.94;6219862;28;20240;-76
2023/12/06 06:11:05;;;;;;;42.10;32.77;;;;;;;1.46;100.00;100924.69;6217120;28;20229;-76
2023/12/06 06:14:27;;;;;;;53.10;32.53;;;;;;;1.35;100.00;100923.53;6213071;28;20351;-76
2023/12/06 06:17:48;;;;;;;46.63;33.73;;;;;;;1.34;100.00;100921.78;6215864;28;20237;-76
2023/12/06 06:21:10;;;;;;;45.90;29.27;;;;;;;1.46;100.00;100929.16;6209369;28;20327;-77
2023/12/06 06:24:31;;;;;;;42.97;31.53;;;;;;;1.38;100.00;100937.50;6217937;28;20228;-77
2023/12/06 06:27:52;;;;;;;53.77;38.37;;;;;;;1.53;100.00;100938.50;6181349;28;20544;-76
2023/12/06 06:31:13;;;;;;;52.90;37.33;;;;;;;1.44;100.00;100936.34;6206796;28;20609;-75
2023/12/06 06:34:34;;;;;;;51.73;35.00;;;;;;;1.48;100.00;100948.53;6214306;28;20240;-76
2023/12/06 06:37:56;;;;;;;45.70;32.13;;;;;;;1.52;100.00;100950.94;6198649;28;20339;-77
2023/12/06 06:41:17;;;;;;;43.87;32.27;;;;;;;1.53;100.00;100950.00;6215144;28;20256;-77
2023/12/06 06:44:40;;;;;;;50.03;33.67;;;;;;;1.70;100.00;100958.91;6219606;28;20236;-76
2023/12/06 06:48:02;;;;;;;49.97;33.00;;;;;;;1.76;100.00;100961.25;6216751;28;20252;-77
2023/12/06 06:51:31;;;;;;;41.77;29.87;;;;;;;1.61;100.00;100957.56;6222036;28;20244;-79
2023/12/06 06:54:54;;;;;;;45.67;29.13;;;;;;;1.65;100.00;100953.81;6218083;28;20244;-77
2023/12/06 06:58:15;;;;;;;47.53;33.40;;;;;;;1.56;100.00;100968.44;6215306;28;20239;-76
2023/12/06 07:01:36;;;;;;;48.37;32.60;;;;;;;1.71;100.00;100969.44;6217462;28;20688;-78
2023/12/06 07:04:57;;;;;;;46.80;32.47;;;;;;;1.61;100.00;100977.03;6219121;28;20229;-78
2023/12/06 07:08:18;;;;;;;45.17;28.10;;;;;;;1.95;100.00;100973.53;6214895;28;20252;-79
2023/12/06 07:11:40;;;;;;;44.00;31.30;;;;;;;1.92;100.00;100980.81;6208728;28;20229;-77
2023/12/06 07:15:01;;;;;;;42.90;29.20;;;;;;;1.83;100.00;100981.25;6217911;28;20233;-77
2023/12/06 07:18:22;;;;;;;52.03;33.87;;;;;;;1.76;100.00;100991.34;6217712;28;20244;-77
2023/12/06 07:21:43;;;;;;;45.23;32.73;;;;;;;1.86;100.00;100991.72;6204558;28;20236;-74
2023/12/06 07:25:04;;;;;;;47.40;30.17;;;;;;;1.84;100.00;101002.44;6220422;28;20236;-79
2023/12/06 07:28:27;;;;;;;42.53;30.33;;;;;;;1.71;100.00;100988.03;6225136;28;20228;-81
2023/12/06 07:31:50;;;;;;;54.93;33.53;;;;;;;1.68;100.00;101003.28;6211752;28;20236;-77
2023/12/06 07:35:11;;;;;;;47.60;33.03;;;;;;;1.75;100.00;101005.59;6231633;28;20326;-76
2023/12/06 07:38:32;;;;;;;47.87;32.80;;;;;;;1.71;100.00;101016.44;6224016;28;20236;-77
2023/12/06 07:41:53;;;;;;;48.17;32.43;;;;;;;1.78;100.00;101010.72;6228492;28;20240;-78
2023/12/06 07:45:15;;;;;;;48.23;32.83;;;;;;;1.86;100.00;101012.97;6233058;28;20244;-77
2023/12/06 07:48:36;;;;;;;52.00;33.50;;;;;;;1.85;100.00;101011.28;6231586;28;20228;-75
2023/12/06 07:51:57;;;;;;;56.63;34.03;;;;;;;1.83;100.00;101015.81;6227701;28;20236;-74
2023/12/06 07:55:18;;;;;;;53.73;36.00;;;;;;;1.92;100.00;101010.88;6222667;28;20511;-78
2023/12/06 07:58:39;;;;;;;32.13;21.93;;;;;;;2.27;100.00;101017.88;6217737;28;20307;-79
2023/12/06 08:02:02;;;;;;;54.90;37.40;;;;;;;2.07;100.00;101022.50;6223346;28;20237;-76
2023/12/06 08:05:23;;;;;;;50.33;32.80;;;;;;;1.84;100.00;101029.00;6227176;28;21239;-72
2023/12/06 08:08:44;;;;;;;48.30;35.20;;;;;;;1.71;100.00;101019.09;6227082;28;20617;-78
2023/12/06 08:12:06;;;;;;;53.37;35.30;;;;;;;1.52;100.00;101025.28;6216412;28;20315;-76
2023/12/06 08:15:29;;;;;;;49.63;33.97;;;;;;;1.49;100.00;101032.56;6218709;28;20267;-79
2023/12/06 08:18:51;;;;;;;55.47;34.73;;;;;;;1.70;100.00;101036.81;6229878;28;20259;-78
2023/12/06 08:22:12;;;;;;;52.10;35.57;;;;;;;1.79;100.00;101033.72;6215482;28;20224;-76
2023/12/06 08:25:33;;;;;;;51.93;34.90;;;;;;;1.79;100.00;101049.66;6205123;28;20236;-76
2023/12/06 08:28:54;;;;;;;53.80;35.93;;;;;;;1.71;100.00;101043.84;6213245;28;20320;-74
2023/12/06 08:32:14;;;;;;;49.57;35.87;;;;;;;1.77;100.00;101040.91;6227666;28;20236;-76
2023/12/06 08:35:37;;;;;;;53.47;37.67;;;;;;;1.61;100.00;101042.56;6216194;28;20684;-76
2023/12/06 08:38:58;;;;;;;51.97;34.63;;;;;;;1.68;100.00;101040.47;6224645;28;20243;-77
2023/12/06 08:42:19;;;;;;;54.13;35.20;;;;;;;1.73;100.00;101046.44;6233581;28;20232;-82
2023/12/06 08:45:40;;;;;;;59.63;39.67;;;;;;;1.76;100.00;101033.84;6212569;28;20236;-77
2023/12/06 08:49:03;;;;;;;53.30;37.33;;;;;;;1.69;100.00;101044.88;6225544;28;20237;-77
2023/12/06 08:52:26;;;;;;;58.20;35.37;;;;;;;1.65;100.00;101041.50;6216286;28;20275;-77
2023/12/06 08:55:47;;;;;;;60.87;35.43;;;;;;;1.59;100.00;101053.28;6227088;28;21034;-78
2023/12/06 08:59:08;;;;;;;51.23;34.97;;;;;;;1.69;100.00;101058.16;6227084;28;20649;-78
2023/12/06 09:02:29;;;;;;;52.73;35.00;;;;;;;1.77;100.00;101064.81;6227523;28;20232;-77
2023/12/06 09:05:50;;;;;;;51.03;34.87;;;;;;;1.64;100.00;101058.38;6227675;28;20232;-77
2023/12/06 09:09:17;;;;;;;63.43;38.90;;;;;;;1.78;100.00;101063.88;6227544;28;20228;-77
2023/12/06 09:12:38;;;;;;;47.17;31.87;;;;;;;1.83;100.00;101077.78;6215709;28;20224;-78
2023/12/06 09:15:59;;;;;;;43.13;33.13;;;;;;;1.85;100.00;101086.56;6225313;28;20613;-77
2023/12/06 09:19:20;;;;;;;47.63;33.30;;;;;;;1.89;100.00;101082.81;6229095;28;20602;-78
2023/12/06 09:22:41;;;;;;;47.33;28.43;;;;;;;2.05;100.00;101074.91;6231009;28;20312;-78
2023/12/06 09:26:03;;;;;;;46.63;32.97;;;;;;;2.05;100.00;101074.91;6213129;28;20240;-78
2023/12/06 09:29:24;;;;;;;46.63;33.97;;;;;;;1.99;100.00;101078.75;6228342;28;20252;-78
2023/12/06 09:32:46;;;;;;;47.53;31.20;;;;;;;2.00;100.00;101080.44;6226359;28;20232;-78
2023/12/06 09:36:07;;;;;;;45.33;32.93;;;;;;;2.10;100.00;101086.19;6228442;28;21434;-79
2023/12/06 09:39:28;;;;;;;45.00;35.27;;;;;;;2.11;100.00;101093.19;6203205;28;20525;-78
2023/12/06 09:42:57;;;;;;;51.90;32.93;;;;;;;2.06;100.00;101095.25;6225254;28;20229;-78
2023/12/06 09:46:19;;;;;;;50.80;30.93;;;;;;;2.07;100.00;101089.84;6217490;28;20244;-78
2023/12/06 09:49:40;;;;;;;47.17;32.03;;;;;;;2.00;100.00;101095.56;6229141;28;20319;-77
2023/12/06 09:53:01;;;;;;;49.07;34.87;;;;;;;1.93;100.00;101102.97;6228260;28;20232;-77
2023/12/06 09:56:23;;;;;;;50.90;35.43;;;;;;;2.13;100.00;101109.94;6231313;28;20319;-78
2023/12/06 09:59:45;;;;;;;47.50;34.07;;;;;;;2.19;100.00;101104.34;6228762;28;20228;-78
2023/12/06 10:03:09;;;;;;;49.40;31.90;;;;;;;2.23;100.00;101108.56;6212575;28;20236;-77
2023/12/06 10:06:31;;;;;;;51.13;32.07;;;;;;;2.25;100.00;101101.38;6226023;28;20498;-77
2023/12/06 10:09:52;;;;;;;52.77;35.70;;;;;;;2.18;100.00;101100.81;6211969;28;20248;-78
2023/12/06 10:13:13;;;;;;;48.10;33.03;;;;;;;2.20;100.00;101100.72;6224419;28;20598;-79
2023/12/06 10:16:37;;;;;;;46.07;32.30;;;;;;;2.26;100.00;101098.63;6227347;28;20233;-78
2023/12/06 10:19:59;;;;;;;45.27;32.63;;;;;;;2.25;100.00;101101.38;6209663;28;20225;-77
2023/12/06 10:23:20;;;;;;;47.47;33.77;;;;;;;2.29;100.00;101100.25;6216284;28;20232;-79
2023/12/06 10:26:40;;;;;;;43.07;29.70;;;;;;;2.21;100.00;101095.31;6222566;28;20223;-78
2023/12/06 10:30:01;;;;;;;45.17;31.60;;;;;;;2.23;100.00;101093.44;6199827;28;20332;-78
2023/12/06 10:33:26;;;;;;;52.47;33.93;;;;;;;2.15;100.00;101095.63;6216004;28;20233;-78
2023/12/06 10:36:49;;;;;;;47.17;33.70;;;;;;;2.30;100.00;101101.97;6193609;28;20323;-79
2023/12/06 10:40:13;;;;;;;43.27;30.40;;;;;;;2.22;100.00;101097.06;6228924;28;20232;-79
2023/12/06 10:43:36;;;;;;;49.13;31.70;;;;;;;2.08;100.00;101094.25;6207138;28;20228;-74
2023/12/06 10:46:58;;;;;;;58.50;37.00;;;;;;;2.23;100.00;101092.59;6209958;28;20670;-74
2023/12/06 10:50:22;;;;;;;54.40;35.50;;;;;;;2.29;100.00;101079.84;6223634;28;21557;-78
2023/12/06 10:53:44;;;;;;;54.43;36.87;;;;;;;2.15;100.00;101086.81;6225349;28;20273;-79
2023/12/06 10:57:06;;;;;;;47.77;32.53;;;;;;;2.17;100.00;101085.78;6226796;28;20613;-77
2023/12/06 11:00:28;;;;;;;46.33;34.47;;;;;;;2.14;100.00;101085.94;6222611;28;20331;-74
2023/12/06 11:03:49;;;;;;;53.90;35.13;;;;;;;2.26;100.00;101085.31;6222494;28;20233;-73
2023/12/06 11:07:23;;;;;;;47.30;34.67;;;;;;;2.31;100.00;101090.41;6220260;28;20256;-76
2023/12/06 11:10:53;;;;;;;52.53;32.90;;;;;;;2.25;100.00;101090.72;6224710;28;20280;-77
2023/12/06 11:14:30;;;;;;;52.90;35.10;;;;;;;2.25;100.00;101080.09;6223736;28;20232;-75
2023/12/06 11:17:59;;;;;;;48.50;34.90;;;;;;;2.37;100.00;101080.31;6224444;28;20256;-76
2023/12/06 11:21:20;;;;;;;53.97;37.47;;;;;;;2.45;100.00;101077.25;6205913;28;20617;-76
2023/12/06 11:24:43;;;;;;;56.97;36.30;;;;;;;2.37;100.00;101082.09;6225631;28;20228;-76
2023/12/06 11:28:04;;;;;;;51.90;37.63;;;;;;;2.21;100.00;101076.69;6224028;28;20232;-77
2023/12/06 11:31:33;;;;;;;51.63;36.40;;;;;;;2.11;100.00;101086.09;6223594;28;20232;-74
2023/12/06 11:34:56;;;;;;;57.13;37.33;;;;;;;2.12;100.00;101086.97;6225460;28;20629;-78
2023/12/06 11:38:17;;;;;;;55.53;36.97;;;;;;;2.14;100.00;101087.75;6223026;28;20240;-75
2023/12/06 11:41:46;;;;;;;47.13;34.50;;;;;;;2.32;100.00;101081.47;6199949;28;20236;-76
2023/12/06 11:45:23;;;;;;;50.97;38.00;;;;;;;2.25;100.00;101085.41;6206939;28;20255;-76
2023/12/06 11:48:48;;;;;;;51.20;33.83;;;;;;;2.17;100.00;101082.28;6215858;28;20225;-75
2023/12/06 11:52:10;;;;;;;53.97;37.13;;;;;;;2.38;100.00;101079.34;6219807;28;20228;-74
2023/12/06 11:55:31;;;;;;;56.33;37.20;;;;;;;2.23;100.00;101076.66;6219339;28;21106;-74
2023/12/06 11:58:54;;;;;;;55.43;38.03;;;;;;;2.11;100.00;101086.09;6205699;28;20339;-73
2023/12/06 12:02:15;;;;;;;61.03;35.10;;;;;;;2.10;100.00;101091.50;6202833;28;20232;-78
2023/12/06 12:05:37;;;;;;;55.43;33.47;;;;;;;2.14;100.00;101088.59;6218477;28;20237;-80
2023/12/06 12:08:58;;;;;;;58.80;36.80;;;;;;;2.17;100.00;101088.44;6198134;28;20247;-78
2023/12/06 12:12:19;;;;;;;68.60;37.27;;;;;;;2.14;100.00;101091.28;6217265;28;20236;-77
2023/12/06 12:15:42;;;;;;;60.43;38.63;;;;;;;1.99;100.00;101092.03;6226697;28;20714;-78
2023/12/06 12:19:03;;;;;;;59.33;35.20;;;;;;;2.02;100.00;101097.22;6225885;28;20236;-79
2023/12/06 12:22:24;;;;;;;70.53;44.27;;;;;;;2.16;100.00;101093.84;6229862;28;20622;-79
2023/12/06 12:25:45;;;;;;;74.83;47.93;;;;;;;2.34;100.00;101101.75;6229121;28;20224;-80
2023/12/06 12:29:06;;;;;;;78.93;49.87;;;;;;;2.23;100.00;101098.75;6229891;28;20355;-79
2023/12/06 12:32:29;;;;;;;67.03;43.20;;;;;;;2.16;100.00;101104.47;6213106;28;20229;-79
2023/12/06 12:35:50;;;;;;;59.40;38.53;;;;;;;2.21;100.00;101102.47;6230779;28;20225;-79
2023/12/06 12:39:11;;;;;;;64.80;40.17;;;;;;;2.30;100.00;101104.63;6229710;28;20605;-79
2023/12/06 12:42:34;;;;;;;55.10;35.80;;;;;;;2.23;100.00;101112.06;6217183;28;20228;-80
2023/12/06 12:45:55;;;;;;;61.73;38.90;;;;;;;2.29;100.00;101118.88;6227187;28;20548;-81
2023/12/06 12:49:19;;;;;;;56.97;34.53;;;;;;;2.31;100.00;101114.34;6217743;28;20728;-81
2023/12/06 12:52:40;;;;;;;60.80;37.57;;;;;;;2.21;100.00;101113.94;6232566;28;20320;-80
2023/12/06 12:56:02;;;;;;;55.63;36.33;;;;;;;2.16;100.00;101120.44;6231409;28;20247;-80
2023/12/06 12:59:24;;;;;;;54.80;34.20;;;;;;;2.10;100.00;101128.72;6231200;28;20220;-80
2023/12/06 13:02:46;;;;;;;96.90;63.20;;;;;;;2.08;100.00;101123.50;6214488;28;20586;-80
2023/12/06 13:06:08;;;;;;;58.03;36.13;;;;;;;2.08;100.00;101125.28;6217317;28;20232;-81
2023/12/06 13:09:29;;;;;;;55.53;38.87;;;;;;;2.10;100.00;101128.72;6213054;28;20516;-79
2023/12/06 13:12:50;;;;;;;65.43;39.40;;;;;;;2.16;100.00;101134.59;6216698;28;20240;-80
2023/12/06 13:16:11;;;;;;;59.67;38.03;;;;;;;2.06;100.00;101141.31;6229708;28;20229;-79
2023/12/06 13:19:32;;;;;;;67.13;46.23;;;;;;;2.07;100.00;101139.50;6222583;28;20575;-80
2023/12/06 13:22:54;;;;;;;64.50;38.77;;;;;;;2.02;100.00;101133.56;6227626;28;21614;-79
2023/12/06 13:26:15;;;;;;;59.53;38.53;;;;;;;2.16;100.00;101141.69;6216398;28;20475;-80
2023/12/06 13:29:36;;;;;;;62.77;37.03;;;;;;;2.20;100.00;101136.16;6224752;28;20331;-81
2023/12/06 13:32:57;;;;;;;50.03;32.90;;;;;;;2.25;100.00;101142.09;6211851;28;20231;-80
2023/12/06 13:36:18;;;;;;;60.63;38.87;;;;;;;2.31;100.00;101143.59;6229407;28;20398;-79
2023/12/06 13:39:40;;;;;;;57.50;41.10;;;;;;;2.24;100.00;101140.38;6229291;28;20256;-79
2023/12/06 13:43:01;;;;;;;77.97;41.77;;;;;;;2.16;100.00;101142.56;6213849;28;20237;-79
2023/12/06 13:46:21;;;;;;;58.57;38.07;;;;;;;2.12;100.00;101135.69;6230611;28;20236;-79
2023/12/06 13:49:42;;;;;;;70.30;41.60;;;;;;;2.08;100.00;101152.72;6228841;28;20630;-79
2023/12/06 13:53:04;;;;;;;63.53;38.67;;;;;;;2.21;100.00;101150.31;6209933;28;20351;-79
2023/12/06 13:56:26;;;;;;;67.77;39.10;;;;;;;2.19;100.00;101161.00;6221540;28;20610;-80
2023/12/06 13:59:47;;;;;;;66.20;39.50;;;;;;;1.96;100.00;101166.59;6228520;28;20240;-80
2023/12/06 14:03:07;;;;;;;74.60;44.40;;;;;;;1.96;100.00;101166.59;6216209;28;20224;-80
2023/12/06 14:06:28;;;;;;;67.77;38.00;;;;;;;2.04;100.00;101166.25;6231784;28;20497;-79
2023/12/06 14:09:49;;;;;;;57.30;36.17;;;;;;;2.14;100.00;101167.50;6231522;28;21639;-80
2023/12/06 14:13:12;;;;;;;60.13;37.90;;;;;;;2.03;100.00;101167.16;6229490;28;20217;-79
2023/12/06 14:16:33;;;;;;;65.23;40.40;;;;;;;1.99;100.00;101173.56;6230293;28;20233;-79
2023/12/06 14:19:54;;;;;;;73.03;44.80;;;;;;;2.01;100.00;101177.88;6230166;28;20555;-79
2023/12/06 14:23:15;;;;;;;64.53;43.87;;;;;;;1.91;100.00;101194.34;6228126;28;20221;-79
2023/12/06 14:26:36;;;;;;;70.93;41.23;;;;;;;1.97;100.00;101196.72;6215495;28;20232;-79
2023/12/06 14:29:58;;;;;;;73.90;45.90;;;;;;;1.98;100.00;101209.09;6217975;28;20240;-78
2023/12/06 14:33:19;;;;;;;71.17;43.60;;;;;;;1.94;100.00;101213.66;6227988;28;20228;-79
2023/12/06 14:36:39;;;;;;;71.20;45.80;;;;;;;1.93;100.00;101216.41;6211085;28;20625;-79
2023/12/06 14:40:00;;;;;;;70.57;41.30;;;;;;;1.91;100.00;101208.50;6228619;28;20232;-79
2023/12/06 14:43:23;;;;;;;63.97;37.53;;;;;;;1.92;100.00;101214.69;6216460;28;20232;-79
2023/12/06 14:46:45;;;;;;;67.60;42.50;;;;;;;1.99;100.00;101219.63;6221563;28;20237;-80
2023/12/06 14:50:07;;;;;;;69.47;40.13;;;;;;;1.91;100.00;101219.13;6212820;28;20240;-79
2023/12/06 14:53:28;;;;;;;76.10;43.17;;;;;;;1.86;100.00;101222.94;6227997;28;20224;-80
2023/12/06 14:56:53;;;;;;;80.97;43.77;;;;;;;2.01;100.00;101232.84;6227490;28;20233;-81
2023/12/06 15:00:15;;;;;;;88.40;45.53;;;;;;;1.91;100.00;101240.41;6226619;28;20503;-79
2023/12/06 15:03:39;;;;;;;61.50;39.47;;;;;;;1.98;100.00;101243.63;6219038;28;20272;-80
2023/12/06 15:07:00;;;;;;;66.97;40.50;;;;;;;1.87;100.00;101244.16;6225967;28;20303;-78
2023/12/06 15:10:21;;;;;;;72.07;42.33;;;;;;;1.85;100.00;101243.34;6229228;28;20236;-80
2023/12/06 15:13:42;;;;;;;77.37;43.57;;;;;;;1.90;100.00;101253.78;6219708;28;20232;-79
2023/12/06 15:17:03;;;;;;;67.03;39.73;;;;;;;1.84;100.00;101252.25;6224821;28;20610;-79